Ansley, Louisiana
Current Conditions -  °F | °C
As of 7:35 AM on Saturday 20 Dec 2014 (Local Time) from KRSN Reporting Station
Haze Haze  
Wind Chill: 38°   Ceiling: 100
Heat Index: 41°   Visibility: 0.75mi
Dew Point: 41°   Wind: 5mph
Humidity: 100%   Direction: 30°NNE
Pressure: 30.28"   Gusts: NA
Location:  32.5075°N, 92.6828°W
Report Text: KRSN 201335Z AUTO 03004KT 3/4SM BR OVC001 05/05 A3028 RMK AO2 T00480048
Loading
Personal Weather Stations






























Interactive Weather Map New forecast layout! Learn more

10-Day Weather Forecast

Advertisements
Track Severe Weather on mobile